createdAt,value
2023-03-21T00:00:23.122Z,8.32
2023-03-21T00:03:13.030Z,9.75
2023-03-21T00:05:45.803Z,7.57
2023-03-21T00:08:15.866Z,4.97
2023-03-21T00:10:45.997Z,7.22
2023-03-21T00:13:16.550Z,11.57
2023-03-21T00:16:16.116Z,6.30
2023-03-21T00:18:47.253Z,9.93
2023-03-21T00:24:09.142Z,6.30
2023-03-21T00:26:38.673Z,8.77
2023-03-21T00:29:08.481Z,5.28
2023-03-21T00:31:39.253Z,6.78
2023-03-21T00:34:09.358Z,6.55
2023-03-21T00:36:39.298Z,6.88
2023-03-21T00:39:10.036Z,8.00
2023-03-21T00:41:43.255Z,7.53
2023-03-21T00:44:15.997Z,9.13
2023-03-21T00:47:00.752Z,9.02
2023-03-21T00:49:38.662Z,9.15
2023-03-21T00:52:18.582Z,8.88
2023-03-21T00:54:54.314Z,8.77
2023-03-21T00:57:37.534Z,13.60
2023-03-21T01:00:11.917Z,8.60
2023-03-21T01:03:11.522Z,8.93
2023-03-21T01:06:06.054Z,11.45
2023-03-21T01:08:52.101Z,7.90
2023-03-21T01:11:25.038Z,7.72
2023-03-21T01:14:04.091Z,6.40
2023-03-21T01:16:34.258Z,7.90
2023-03-21T01:19:09.304Z,8.05
2023-03-21T01:21:41.957Z,8.30
2023-03-21T01:24:12.051Z,9.00
2023-03-21T01:26:42.404Z,8.95
2023-03-21T01:29:12.012Z,10.50
2023-03-21T01:31:41.669Z,7.18
2023-03-21T01:34:12.728Z,10.88
2023-03-21T01:36:42.610Z,10.02
2023-03-21T01:39:17.430Z,9.73
2023-03-21T01:41:49.658Z,7.28
2023-03-21T01:47:12.434Z,10.30
2023-03-21T01:49:51.344Z,7.40
2023-03-21T01:52:36.948Z,5.82
2023-03-21T01:55:13.595Z,6.10
2023-03-21T01:58:12.812Z,6.90
2023-03-21T02:01:12.061Z,6.85
2023-03-21T02:03:53.933Z,5.32
2023-03-21T02:06:41.403Z,6.53
2023-03-21T02:09:52.142Z,6.78
2023-03-21T02:12:24.216Z,5.13
2023-03-21T02:14:56.364Z,8.00
2023-03-21T02:17:57.612Z,5.50
2023-03-21T02:21:12.704Z,5.50
2023-03-21T02:24:37.960Z,5.93
2023-03-21T02:27:18.884Z,8.07
2023-03-21T02:30:30.427Z,5.55
2023-03-21T02:33:48.171Z,4.72
2023-03-21T02:36:27.078Z,4.03
2023-03-21T02:39:09.095Z,5.50
2023-03-21T02:41:48.477Z,7.38
2023-03-21T02:44:25.707Z,5.85
2023-03-21T02:47:06.071Z,7.10
2023-03-21T02:49:45.393Z,4.70
2023-03-21T02:52:35.435Z,7.80
2023-03-21T02:55:13.895Z,4.78
2023-03-21T02:57:52.578Z,6.38
2023-03-21T03:00:25.725Z,7.05
2023-03-21T03:03:08.153Z,5.82
2023-03-21T03:05:45.417Z,6.47
2023-03-21T03:08:37.556Z,6.68
2023-03-21T03:11:24.127Z,7.28
2023-03-21T03:14:40.147Z,6.13
2023-03-21T03:17:21.777Z,6.35
2023-03-21T03:20:15.500Z,8.95
2023-03-21T03:22:56.479Z,7.68
2023-03-21T03:25:42.005Z,7.43
2023-03-21T03:28:19.247Z,7.40
2023-03-21T03:38:40.202Z,5.93
2023-03-21T03:41:14.790Z,11.68
2023-03-21T03:43:56.405Z,10.05
2023-03-21T03:46:34.277Z,9.55
2023-03-21T03:49:09.142Z,9.40
2023-03-21T03:51:45.411Z,9.00
2023-03-21T03:54:32.366Z,8.07
2023-03-21T03:57:04.548Z,7.13
2023-03-21T03:59:38.974Z,11.77
2023-03-21T04:02:47.156Z,10.65
2023-03-21T04:05:21.962Z,9.77
2023-03-21T04:07:51.909Z,10.10
2023-03-21T04:10:28.440Z,12.30
2023-03-21T04:12:57.642Z,9.05
2023-03-21T04:16:00.572Z,11.20
2023-03-21T04:18:30.244Z,14.13
2023-03-21T04:21:00.512Z,9.15
2023-03-21T04:23:32.567Z,9.88
2023-03-21T04:26:02.135Z,9.00
2023-03-21T04:28:37.948Z,7.47
2023-03-21T04:31:25.616Z,12.20
2023-03-21T04:34:05.933Z,14.25
2023-03-21T04:36:39.232Z,10.80
2023-03-21T04:39:12.627Z,7.20
2023-03-21T04:41:43.680Z,8.50
2023-03-21T04:44:14.058Z,6.55
2023-03-21T04:46:45.375Z,10.48
2023-03-21T04:49:15.590Z,10.32
2023-03-21T04:51:46.393Z,7.95
2023-03-21T04:54:21.104Z,9.05
2023-03-21T04:56:52.237Z,8.00
2023-03-21T04:59:22.189Z,8.63
2023-03-21T05:01:53.735Z,11.75
2023-03-21T05:04:23.078Z,9.80
2023-03-21T05:06:52.856Z,10.38
2023-03-21T05:09:22.912Z,11.13
2023-03-21T05:11:53.090Z,12.77
2023-03-21T05:14:25.064Z,15.93
2023-03-21T05:16:57.483Z,10.38
2023-03-21T05:19:35.050Z,12.85
2023-03-21T05:22:08.244Z,19.40
2023-03-21T05:24:39.334Z,12.82
2023-03-21T05:27:14.255Z,13.15
2023-03-21T05:29:47.901Z,11.13
2023-03-21T05:32:20.098Z,11.35
2023-03-21T05:34:49.532Z,10.77
2023-03-21T05:37:20.816Z,12.27
2023-03-21T05:39:52.384Z,15.27
2023-03-21T05:42:27.950Z,8.02
2023-03-21T05:44:57.588Z,11.82
2023-03-21T05:47:36.851Z,9.18
2023-03-21T05:50:07.409Z,5.35
2023-03-21T05:52:37.529Z,5.80
2023-03-21T05:55:13.754Z,9.15
2023-03-21T05:57:43.391Z,10.13
2023-03-21T06:00:22.038Z,6.60
2023-03-21T06:03:14.310Z,9.93
2023-03-21T06:06:03.531Z,8.82
2023-03-21T06:08:39.036Z,9.18
2023-03-21T06:11:14.215Z,9.43
2023-03-21T06:16:13.132Z,8.68
2023-03-21T06:18:44.316Z,7.03
2023-03-21T06:21:24.701Z,4.85
2023-03-21T06:23:55.281Z,9.43
2023-03-21T06:26:25.443Z,6.97
2023-03-21T06:28:56.697Z,11.65
2023-03-21T06:31:26.895Z,6.38
2023-03-21T06:34:04.604Z,4.70
2023-03-21T06:36:35.078Z,7.43
2023-03-21T06:39:04.803Z,7.30
2023-03-21T06:41:34.465Z,6.75
2023-03-21T06:44:06.538Z,7.65
2023-03-21T06:46:42.436Z,5.25
2023-03-21T06:49:16.485Z,9.10
2023-03-21T06:51:46.012Z,6.07
2023-03-21T06:54:21.158Z,4.55
2023-03-21T06:56:56.780Z,7.50
2023-03-21T06:59:31.337Z,8.30
2023-03-21T07:02:07.027Z,4.78
2023-03-21T07:04:45.160Z,6.28
2023-03-21T07:07:19.983Z,6.10
2023-03-21T07:09:49.699Z,9.20
2023-03-21T07:12:19.205Z,7.47
2023-03-21T07:15:08.933Z,6.65
2023-03-21T07:17:39.517Z,5.80
2023-03-21T07:20:12.755Z,9.20
2023-03-21T07:22:42.098Z,5.30
2023-03-21T07:25:12.951Z,5.95
2023-03-21T07:27:42.766Z,3.08
2023-03-21T07:30:14.036Z,7.03
2023-03-21T07:32:43.611Z,4.38
2023-03-21T07:35:17.213Z,5.28
2023-03-21T07:37:46.727Z,4.43
2023-03-21T07:40:19.343Z,8.40
2023-03-21T07:42:51.769Z,8.60
2023-03-21T07:45:31.766Z,5.80
2023-03-21T07:48:01.368Z,7.07
2023-03-21T07:50:32.805Z,8.15
2023-03-21T07:53:02.117Z,5.63
2023-03-21T07:55:34.982Z,8.68
2023-03-21T07:58:05.641Z,8.85
2023-03-21T08:00:35.310Z,5.85
2023-03-21T08:03:04.731Z,4.25
2023-03-21T08:05:39.197Z,5.95
2023-03-21T08:08:09.308Z,4.63
2023-03-21T08:10:39.252Z,4.85
2023-03-21T08:13:08.572Z,4.50
2023-03-21T08:15:40.139Z,7.65
2023-03-21T08:18:10.241Z,6.88
2023-03-21T08:20:41.343Z,4.05
2023-03-21T08:23:11.217Z,5.97
2023-03-21T08:25:41.104Z,5.57
2023-03-21T08:28:10.707Z,7.70
2023-03-21T08:30:40.882Z,7.40
2023-03-21T08:33:14.435Z,10.52
2023-03-21T08:35:46.045Z,5.28
2023-03-21T08:38:15.623Z,5.55
2023-03-21T08:40:45.193Z,5.07
2023-03-21T08:43:15.013Z,4.85
2023-03-21T08:45:44.754Z,4.57
2023-03-21T08:48:14.132Z,4.47
2023-03-21T08:50:46.323Z,5.07
2023-03-21T08:53:15.795Z,9.68
2023-03-21T08:55:45.904Z,5.25
2023-03-21T08:58:15.165Z,4.93
2023-03-21T09:00:44.963Z,3.13
2023-03-21T09:03:14.349Z,8.25
2023-03-21T09:05:46.611Z,21.73
2023-03-21T09:08:15.904Z,82.65
2023-03-21T09:10:45.451Z,18.55
2023-03-21T09:13:14.756Z,4.13
2023-03-21T09:15:45.467Z,2.67
2023-03-21T09:18:16.413Z,3.20
2023-03-21T09:20:49.068Z,2.58
2023-03-21T09:23:18.466Z,4.30
2023-03-21T09:25:48.269Z,2.95
2023-03-21T09:28:17.794Z,1.88
2023-03-21T09:30:47.691Z,3.42
2023-03-21T09:33:21.339Z,3.95
2023-03-21T09:35:58.786Z,4.78
2023-03-21T09:38:30.578Z,6.78
2023-03-21T09:41:13.230Z,3.40
2023-03-21T09:43:56.130Z,3.83
2023-03-21T09:46:36.073Z,2.50
2023-03-21T09:49:10.006Z,2.55
2023-03-21T09:51:46.286Z,6.05
2023-03-21T09:54:23.585Z,5.45
2023-03-21T09:56:56.422Z,6.18
2023-03-21T09:59:33.805Z,3.17
2023-03-21T10:02:04.405Z,1.92
2023-03-21T10:04:34.034Z,2.45
2023-03-21T10:07:06.088Z,5.20
2023-03-21T10:09:38.756Z,6.15
2023-03-21T10:12:15.193Z,3.65
2023-03-21T10:14:48.700Z,4.22
2023-03-21T10:17:27.208Z,5.38
2023-03-21T10:20:11.972Z,3.10
2023-03-21T10:22:44.251Z,3.90
2023-03-21T10:25:17.035Z,3.92
2023-03-21T10:27:48.165Z,6.00
2023-03-21T10:30:29.458Z,3.05
2023-03-21T10:33:05.237Z,8.52
2023-03-21T10:35:37.519Z,3.40
2023-03-21T10:38:16.046Z,5.40
2023-03-21T10:40:45.767Z,3.05
2023-03-21T10:43:21.841Z,3.08
2023-03-21T10:45:51.272Z,3.78
2023-03-21T10:48:21.494Z,2.90
2023-03-21T10:50:53.797Z,2.95
2023-03-21T10:53:30.839Z,6.85
2023-03-21T10:56:02.700Z,2.50
2023-03-21T10:58:39.087Z,3.85
2023-03-21T11:01:15.032Z,2.67
2023-03-21T11:03:48.405Z,4.30
2023-03-21T11:06:27.813Z,3.35
2023-03-21T11:09:04.117Z,3.75
2023-03-21T11:11:38.968Z,4.38
2023-03-21T11:14:21.820Z,5.85
2023-03-21T11:16:51.955Z,4.22
2023-03-21T11:19:30.857Z,3.25
2023-03-21T11:22:00.411Z,3.40
2023-03-21T11:24:33.558Z,5.47
2023-03-21T11:27:07.163Z,3.95
2023-03-21T11:29:39.035Z,4.28
2023-03-21T11:32:14.187Z,3.50
2023-03-21T11:34:49.020Z,5.78
2023-03-21T11:37:30.017Z,2.00
2023-03-21T11:40:19.942Z,2.10
2023-03-21T11:42:52.888Z,3.38
2023-03-21T11:45:25.280Z,2.50
2023-03-21T11:47:56.964Z,2.95
2023-03-21T11:50:33.998Z,2.95
2023-03-21T11:53:29.121Z,4.20
2023-03-21T11:56:13.265Z,3.30
2023-03-21T11:58:53.266Z,3.97
2023-03-21T12:01:29.123Z,2.75
2023-03-21T12:04:12.938Z,2.33
2023-03-21T12:06:52.546Z,3.22
2023-03-21T12:09:39.325Z,3.05
2023-03-21T12:12:33.028Z,2.42
2023-03-21T12:15:14.614Z,2.55
2023-03-21T12:17:54.663Z,2.90
2023-03-21T12:20:31.781Z,3.35
2023-03-21T12:23:23.542Z,4.18
2023-03-21T12:26:09.637Z,4.85
2023-03-21T12:28:48.987Z,4.93
2023-03-21T12:31:25.279Z,11.65
2023-03-21T12:34:11.491Z,3.80
2023-03-21T12:36:52.868Z,3.70
2023-03-21T12:39:30.232Z,5.97
2023-03-21T12:42:20.710Z,3.25
2023-03-21T12:44:58.780Z,3.10
2023-03-21T12:47:31.691Z,4.22
2023-03-21T12:50:07.324Z,3.50
2023-03-21T12:52:40.461Z,3.53
2023-03-21T12:55:19.662Z,3.47
2023-03-21T12:57:57.493Z,3.50
2023-03-21T13:00:35.575Z,4.13
2023-03-21T13:03:10.045Z,3.83
2023-03-21T13:05:43.427Z,3.80
2023-03-21T13:08:17.733Z,7.72
2023-03-21T13:10:47.960Z,5.68
2023-03-21T13:13:27.278Z,4.35
2023-03-21T13:16:07.734Z,5.93
2023-03-21T13:18:45.354Z,5.05
2023-03-21T13:21:19.836Z,5.03
2023-03-21T13:24:02.269Z,6.22
2023-03-21T13:26:38.488Z,4.05
2023-03-21T13:29:33.386Z,4.00
2023-03-21T13:32:17.878Z,4.57
2023-03-21T13:34:55.087Z,8.55
2023-03-21T13:37:26.858Z,9.52
2023-03-21T13:40:09.484Z,10.18
2023-03-21T13:42:46.589Z,12.15
2023-03-21T13:45:28.407Z,8.43
2023-03-21T13:48:00.938Z,12.80
2023-03-21T13:50:52.709Z,4.97
2023-03-21T13:53:26.444Z,9.82
2023-03-21T13:56:24.490Z,5.53
2023-03-21T13:58:59.050Z,8.40
2023-03-21T14:01:35.438Z,6.00
2023-03-21T14:04:16.654Z,5.05
2023-03-21T14:06:51.530Z,5.03
2023-03-21T14:09:27.229Z,5.60
2023-03-21T14:12:04.057Z,6.53
2023-03-21T14:14:41.425Z,7.65
2023-03-21T14:17:23.249Z,4.78
2023-03-21T14:19:56.469Z,5.82
2023-03-21T14:22:26.187Z,6.60
2023-03-21T14:24:59.853Z,5.78
2023-03-21T14:30:02.098Z,4.72
2023-03-21T14:32:32.269Z,4.20
2023-03-21T14:35:04.371Z,8.48
2023-03-21T14:37:38.797Z,7.50
2023-03-21T14:40:19.721Z,4.63
2023-03-21T14:42:50.601Z,7.35
2023-03-21T14:45:23.020Z,7.80
2023-03-21T14:48:00.129Z,6.85
2023-03-21T14:50:42.067Z,8.65
2023-03-21T14:53:19.867Z,5.45
2023-03-21T14:55:57.446Z,10.75
2023-03-21T14:58:27.980Z,6.00
2023-03-21T15:01:04.485Z,6.50
2023-03-21T15:03:34.870Z,4.05
2023-03-21T15:06:06.428Z,5.40
2023-03-21T15:08:35.677Z,7.10
2023-03-21T15:11:08.344Z,9.15
2023-03-21T15:13:45.510Z,5.90
2023-03-21T15:16:15.674Z,7.45
2023-03-21T15:18:46.848Z,12.00
2023-03-21T15:21:23.454Z,6.45
2023-03-21T15:23:55.900Z,8.40
2023-03-21T15:26:27.854Z,8.52
2023-03-21T15:29:00.466Z,10.15
2023-03-21T15:31:33.080Z,8.65
2023-03-21T15:34:02.818Z,9.82
2023-03-21T15:36:37.880Z,8.15
2023-03-21T15:39:09.771Z,11.07
2023-03-21T15:41:39.454Z,19.70
2023-03-21T15:44:15.996Z,12.18
2023-03-21T15:46:48.412Z,13.88
2023-03-21T15:49:22.918Z,12.35
2023-03-21T15:51:59.038Z,14.48
2023-03-21T15:54:31.231Z,14.77
2023-03-21T15:57:04.945Z,19.67
2023-03-21T15:59:38.792Z,23.13
2023-03-21T16:02:17.904Z,17.63
2023-03-21T16:04:58.362Z,12.10
2023-03-21T16:07:29.585Z,15.75
2023-03-21T16:10:04.674Z,16.65
2023-03-21T16:12:35.321Z,22.23
2023-03-21T16:15:05.247Z,25.33
2023-03-21T16:17:37.829Z,20.13
2023-03-21T16:20:20.347Z,20.95
2023-03-21T16:22:51.862Z,14.43
2023-03-21T16:25:21.803Z,13.90
2023-03-21T16:27:51.911Z,14.27
2023-03-21T16:30:22.940Z,19.15
2023-03-21T16:32:53.197Z,21.27
2023-03-21T16:35:23.728Z,23.05
2023-03-21T16:37:54.853Z,31.00
2023-03-21T16:40:29.469Z,35.60
2023-03-21T16:42:59.283Z,39.28
2023-03-21T16:45:30.506Z,29.77
2023-03-21T16:48:01.055Z,19.35
2023-03-21T16:50:34.273Z,31.35
2023-03-21T16:53:06.152Z,21.20
2023-03-21T16:55:35.834Z,22.08
2023-03-21T16:58:07.023Z,31.35
2023-03-21T17:00:36.597Z,35.97
2023-03-21T17:03:15.784Z,25.35
2023-03-21T17:05:45.511Z,25.70
2023-03-21T17:08:20.965Z,22.88
2023-03-21T17:10:50.627Z,15.48
2023-03-21T17:13:20.169Z,17.95
2023-03-21T17:15:49.630Z,22.35
2023-03-21T17:18:19.461Z,39.42
2023-03-21T17:20:48.811Z,54.75
2023-03-21T17:23:19.782Z,41.05
2023-03-21T17:25:49.051Z,26.13
2023-03-21T17:28:18.935Z,31.65
2023-03-21T17:30:48.400Z,27.08
2023-03-21T17:33:18.150Z,28.90
2023-03-21T17:35:47.571Z,33.58
2023-03-21T17:38:19.956Z,44.85
2023-03-21T17:40:50.532Z,47.08
2023-03-21T17:43:23.372Z,59.80
2023-03-21T17:45:53.270Z,52.50
2023-03-21T17:48:23.025Z,52.20
2023-03-21T17:50:52.591Z,33.75
2023-03-21T17:53:23.561Z,35.72
2023-03-21T17:55:52.952Z,51.10
2023-03-21T17:58:22.701Z,45.58
2023-03-21T18:00:52.109Z,40.78
2023-03-21T18:03:21.966Z,28.23
2023-03-21T18:05:51.823Z,28.80
2023-03-21T18:08:22.759Z,37.72
2023-03-21T18:10:52.836Z,43.38
2023-03-21T18:13:22.514Z,54.38
2023-03-21T18:15:52.898Z,54.13
2023-03-21T18:18:23.066Z,45.35
2023-03-21T18:20:54.292Z,24.83
2023-03-21T18:23:25.723Z,27.13
2023-03-21T18:25:55.540Z,33.80
2023-03-21T18:28:25.513Z,37.08
2023-03-21T18:31:16.839Z,20.73
2023-03-21T18:33:46.455Z,15.35
2023-03-21T18:36:24.663Z,21.40
2023-03-21T18:38:56.983Z,21.80
2023-03-21T18:41:26.329Z,29.70
2023-03-21T18:44:02.967Z,23.90
2023-03-21T18:46:47.064Z,21.05
2023-03-21T18:50:02.160Z,22.70
2023-03-21T18:52:09.040Z,23.60
2023-03-21T18:54:40.721Z,25.10
2023-03-21T19:00:00.043Z,19.67
2023-03-21T19:02:30.135Z,34.78
2023-03-21T19:05:00.020Z,27.38
2023-03-21T19:07:29.989Z,23.45
2023-03-21T19:10:17.011Z,26.30
2023-03-21T19:12:47.816Z,27.05
2023-03-21T19:15:19.904Z,31.65
2023-03-21T19:20:44.634Z,30.63
2023-03-21T19:23:14.679Z,33.80
2023-03-21T19:25:46.001Z,38.63
2023-03-21T19:28:15.446Z,35.63
2023-03-21T19:30:50.076Z,31.45
2023-03-21T19:33:21.064Z,26.33
2023-03-21T19:36:10.879Z,20.63
2023-03-21T19:38:41.507Z,16.67
2023-03-21T19:41:12.720Z,18.15
2023-03-21T19:43:52.863Z,26.15
2023-03-21T19:46:25.341Z,21.20
2023-03-21T19:48:56.448Z,20.75
2023-03-21T19:51:30.127Z,20.88
2023-03-21T19:54:00.193Z,22.05
2023-03-21T19:56:31.737Z,18.98
2023-03-21T19:59:01.737Z,20.05
2023-03-21T20:01:32.482Z,24.75
2023-03-21T20:04:02.223Z,25.27
2023-03-21T20:06:32.301Z,26.77
2023-03-21T20:11:53.528Z,15.82
2023-03-21T20:14:22.818Z,23.33
2023-03-21T20:16:55.400Z,24.85
2023-03-21T20:19:25.446Z,25.73
2023-03-21T20:21:59.910Z,30.20
2023-03-21T20:24:31.047Z,31.45
2023-03-21T20:27:02.093Z,33.08
2023-03-21T20:30:08.146Z,25.33
2023-03-21T20:32:21.313Z,23.60
2023-03-21T20:34:51.094Z,23.35
2023-03-21T20:37:24.249Z,22.25
2023-03-21T20:39:53.827Z,23.58
2023-03-21T20:42:24.897Z,18.05
2023-03-21T20:44:59.358Z,22.20
2023-03-21T20:47:30.417Z,21.58
2023-03-21T20:49:59.879Z,25.23
2023-03-21T20:55:20.054Z,25.73
2023-03-21T20:57:51.155Z,20.92
2023-03-21T21:00:22.398Z,20.45
2023-03-21T21:02:52.132Z,20.02
2023-03-21T21:05:27.847Z,22.67
2023-03-21T21:07:59.017Z,26.70
2023-03-21T21:10:28.873Z,22.83
2023-03-21T21:13:00.040Z,26.55
2023-03-21T21:15:29.449Z,22.20
2023-03-21T21:18:07.808Z,22.95
2023-03-21T21:20:38.631Z,26.85
2023-03-21T21:23:10.208Z,30.38
2023-03-21T21:25:39.821Z,25.15
2023-03-21T21:28:11.876Z,31.55
2023-03-21T21:30:42.992Z,27.08
2023-03-21T21:33:14.504Z,27.63
2023-03-21T21:35:47.710Z,27.25
2023-03-21T21:38:19.381Z,33.40
2023-03-21T21:40:49.832Z,27.88
2023-03-21T21:43:21.382Z,33.67
2023-03-21T21:45:51.780Z,33.75
2023-03-21T21:48:21.478Z,40.30
2023-03-21T21:50:54.162Z,51.83
2023-03-21T21:53:24.214Z,44.00
2023-03-21T21:55:54.175Z,43.65
2023-03-21T21:58:26.048Z,35.60
2023-03-21T22:00:59.304Z,34.60
2023-03-21T22:03:36.548Z,38.17
2023-03-21T22:06:06.264Z,36.53
2023-03-21T22:08:35.983Z,32.72
2023-03-21T22:11:06.731Z,33.15
2023-03-21T22:13:38.057Z,37.30
2023-03-21T22:16:08.124Z,33.90
2023-03-21T22:18:38.667Z,44.20
2023-03-21T22:21:08.738Z,44.22
2023-03-21T22:23:41.466Z,40.50
2023-03-21T22:26:11.811Z,36.95
2023-03-21T22:28:43.489Z,35.05
2023-03-21T22:31:15.678Z,37.42
2023-03-21T22:33:45.992Z,128.55
2023-03-21T22:36:15.543Z,106.50
2023-03-21T22:38:44.976Z,115.60
2023-03-21T22:41:14.388Z,117.00
2023-03-21T22:43:45.429Z,82.53
2023-03-21T22:46:14.899Z,99.82
2023-03-21T22:48:44.540Z,106.80
2023-03-21T22:51:13.848Z,95.90
2023-03-21T22:53:43.424Z,77.15
2023-03-21T22:56:12.848Z,78.78
2023-03-21T22:58:42.555Z,77.72
2023-03-21T23:01:13.253Z,42.00
2023-03-21T23:03:42.963Z,42.95
2023-03-21T23:06:12.476Z,41.70
2023-03-21T23:08:42.069Z,43.30
2023-03-21T23:11:12.322Z,40.50
2023-03-21T23:13:42.519Z,43.97
2023-03-21T23:16:13.235Z,46.67
2023-03-21T23:18:43.111Z,44.47
2023-03-21T23:21:13.472Z,41.15
2023-03-21T23:23:50.242Z,40.40
2023-03-21T23:26:21.077Z,41.85
2023-03-21T23:28:51.195Z,31.08
2023-03-21T23:31:24.111Z,34.92
2023-03-21T23:33:54.522Z,31.13
2023-03-21T23:36:24.130Z,34.47
2023-03-21T23:38:54.086Z,34.15
2023-03-21T23:41:25.743Z,31.33
2023-03-21T23:43:55.327Z,34.08
2023-03-21T23:46:26.182Z,31.50
2023-03-21T23:48:55.695Z,27.55
2023-03-21T23:51:25.062Z,29.00
2023-03-21T23:53:56.631Z,32.70
2023-03-21T23:56:27.617Z,32.20
2023-03-21T23:58:59.551Z,30.30
